createdAt,value
2022-12-08T00:01:28.305Z,0.70
2022-12-08T00:03:58.172Z,0.62
2022-12-08T00:06:49.302Z,0.56
2022-12-08T00:09:37.849Z,0.52
2022-12-08T00:12:08.374Z,0.49
2022-12-08T00:14:37.460Z,0.51
2022-12-08T00:17:06.362Z,0.53
2022-12-08T00:19:34.431Z,0.53
2022-12-08T00:22:03.523Z,0.53
2022-12-08T00:24:33.046Z,0.55
2022-12-08T00:27:03.835Z,0.58
2022-12-08T00:29:31.933Z,0.60
2022-12-08T00:31:59.842Z,0.66
2022-12-08T00:34:27.771Z,0.72
2022-12-08T00:36:55.641Z,0.75
2022-12-08T00:39:23.505Z,0.76
2022-12-08T00:42:10.220Z,0.81
2022-12-08T00:44:38.186Z,0.85
2022-12-08T00:47:06.056Z,0.85
2022-12-08T00:49:34.426Z,0.83
2022-12-08T00:52:02.405Z,0.79
2022-12-08T00:54:30.187Z,0.76
2022-12-08T00:56:58.142Z,0.73
2022-12-08T00:59:26.113Z,0.69
2022-12-08T01:01:54.092Z,0.66
2022-12-08T01:04:22.050Z,0.62
2022-12-08T01:06:50.023Z,0.57
2022-12-08T01:09:18.495Z,0.52
2022-12-08T01:11:46.881Z,0.48
2022-12-08T01:14:15.147Z,0.48
2022-12-08T01:16:43.175Z,0.46
2022-12-08T01:19:13.039Z,0.43
2022-12-08T01:21:41.518Z,0.39
2022-12-08T01:24:16.754Z,0.36
2022-12-08T01:26:44.934Z,0.31
2022-12-08T01:29:13.206Z,0.25
2022-12-08T01:31:41.124Z,0.19
2022-12-08T01:34:10.379Z,0.11
2022-12-08T01:36:38.763Z,0.07
2022-12-08T01:39:08.465Z,0.02
2022-12-08T01:41:37.698Z,-0.02
2022-12-08T01:44:08.516Z,-0.05
2022-12-08T01:46:37.988Z,-0.08
2022-12-08T01:49:11.709Z,-0.10
2022-12-08T01:51:45.795Z,-0.11
2022-12-08T01:54:14.614Z,-0.14
2022-12-08T01:56:46.885Z,-0.19
2022-12-08T01:59:15.054Z,-0.22
2022-12-08T02:01:43.055Z,-0.26
2022-12-08T02:04:11.309Z,-0.30
2022-12-08T02:06:42.144Z,-0.32
2022-12-08T02:09:10.722Z,-0.35
2022-12-08T02:11:38.523Z,-0.35
2022-12-08T02:14:08.480Z,-0.36
2022-12-08T02:16:55.050Z,-0.37
2022-12-08T02:19:33.007Z,-0.40
2022-12-08T02:22:06.937Z,-0.45
2022-12-08T02:24:34.794Z,-0.47
2022-12-08T02:27:08.699Z,-0.49
2022-12-08T02:29:36.570Z,-0.52
2022-12-08T02:32:16.719Z,-0.52
2022-12-08T02:34:46.636Z,-0.53
2022-12-08T02:37:18.186Z,-0.55
2022-12-08T02:40:04.915Z,-0.58
2022-12-08T02:42:56.126Z,-0.60
2022-12-08T02:45:26.741Z,-0.62
2022-12-08T02:47:55.127Z,-0.63
2022-12-08T02:50:22.989Z,-0.64
2022-12-08T02:52:50.858Z,-0.66
2022-12-08T02:55:41.661Z,-0.68
2022-12-08T02:58:24.886Z,-0.70
2022-12-08T03:00:52.757Z,-0.73
2022-12-08T03:03:49.812Z,-0.77
2022-12-08T03:06:17.877Z,-0.82
2022-12-08T03:08:48.512Z,-0.85
2022-12-08T03:11:20.514Z,-0.88
2022-12-08T03:13:51.420Z,-0.90
2022-12-08T03:16:22.506Z,-0.94
2022-12-08T03:19:00.463Z,-0.96
2022-12-08T03:21:29.248Z,-0.99
2022-12-08T03:23:57.832Z,-1.01
2022-12-08T03:26:30.409Z,-1.02
2022-12-08T03:28:58.583Z,-1.03
2022-12-08T03:31:29.729Z,-1.05
2022-12-08T03:33:59.032Z,-1.06
2022-12-08T03:36:27.519Z,-1.08
2022-12-08T03:38:55.483Z,-1.10
2022-12-08T03:41:23.560Z,-1.10
2022-12-08T03:43:59.817Z,-1.12
2022-12-08T03:48:57.296Z,-1.14
2022-12-08T03:51:25.369Z,-1.16
2022-12-08T03:53:53.328Z,-1.19
2022-12-08T03:56:28.672Z,-1.23
2022-12-08T03:58:57.052Z,-1.29
2022-12-08T04:01:25.599Z,-1.33
2022-12-08T04:03:53.911Z,-1.38
2022-12-08T04:06:22.204Z,-1.40
2022-12-08T04:08:50.626Z,-1.44
2022-12-08T04:11:19.361Z,-1.45
2022-12-08T04:13:47.838Z,-1.44
2022-12-08T04:16:24.074Z,-1.42
2022-12-08T04:18:52.686Z,-1.40
2022-12-08T04:21:20.764Z,-1.38
2022-12-08T04:23:49.255Z,-1.35
2022-12-08T04:26:17.720Z,-1.29
2022-12-08T04:28:45.603Z,-1.23
2022-12-08T04:31:13.733Z,-1.17
2022-12-08T04:33:41.735Z,-1.09
2022-12-08T04:36:10.110Z,-1.01
2022-12-08T04:38:38.077Z,-0.94
2022-12-08T04:41:05.944Z,-0.90
2022-12-08T04:43:33.914Z,-0.83
2022-12-08T04:46:01.782Z,-0.83
2022-12-08T04:48:29.751Z,-0.88
2022-12-08T04:50:57.728Z,-0.87
2022-12-08T04:53:27.026Z,-0.86
2022-12-08T04:55:54.874Z,-0.87
2022-12-08T04:58:22.862Z,-0.89
2022-12-08T05:00:50.846Z,-0.91
2022-12-08T05:03:22.523Z,-0.89
2022-12-08T05:05:54.857Z,-0.88
2022-12-08T05:08:22.793Z,-0.87
2022-12-08T05:10:50.807Z,-0.86
2022-12-08T05:13:18.791Z,-0.84
2022-12-08T05:15:46.630Z,-0.82
2022-12-08T05:18:15.830Z,-0.78
2022-12-08T05:20:43.809Z,-0.72
2022-12-08T05:23:11.667Z,-0.67
2022-12-08T05:25:39.532Z,-0.64
2022-12-08T05:28:39.776Z,-0.62
2022-12-08T05:30:55.445Z,-0.60
2022-12-08T05:33:23.282Z,-0.59
2022-12-08T05:35:51.282Z,-0.56
2022-12-08T05:38:19.247Z,-0.55
2022-12-08T05:40:47.323Z,-0.56
2022-12-08T05:43:15.412Z,-0.57
2022-12-08T05:45:43.419Z,-0.57
2022-12-08T05:48:11.547Z,-0.60
2022-12-08T05:50:40.023Z,-0.60
2022-12-08T05:53:07.986Z,-0.59
2022-12-08T05:55:35.851Z,-0.57
2022-12-08T05:58:07.793Z,-0.56
2022-12-08T06:00:36.198Z,-0.55
2022-12-08T06:03:04.189Z,-0.53
2022-12-08T06:05:35.821Z,-0.50
2022-12-08T06:08:03.918Z,-0.46
2022-12-08T06:10:31.819Z,-0.46
2022-12-08T06:12:59.734Z,-0.47
2022-12-08T06:15:27.698Z,-0.49
2022-12-08T06:17:55.567Z,-0.48
2022-12-08T06:20:23.367Z,-0.46
2022-12-08T06:22:51.400Z,-0.44
2022-12-08T06:25:19.375Z,-0.42
2022-12-08T06:27:47.332Z,-0.41
2022-12-08T06:30:15.828Z,-0.40
2022-12-08T06:32:44.920Z,-0.37
2022-12-08T06:35:12.785Z,-0.35
2022-12-08T06:37:40.669Z,-0.32
2022-12-08T06:40:08.922Z,-0.27
2022-12-08T06:42:47.295Z,-0.22
2022-12-08T06:45:17.059Z,-0.18
2022-12-08T06:47:45.436Z,-0.14
2022-12-08T06:50:13.824Z,-0.10
2022-12-08T06:52:54.263Z,-0.06
2022-12-08T06:55:57.450Z,-0.04
2022-12-08T06:58:14.890Z,0.00
2022-12-08T07:00:42.790Z,0.03
2022-12-08T07:03:11.347Z,0.07
2022-12-08T07:05:39.620Z,0.10
2022-12-08T07:08:08.472Z,0.14
2022-12-08T07:10:36.999Z,0.20
2022-12-08T07:13:04.828Z,0.26
2022-12-08T07:15:32.828Z,0.35
2022-12-08T07:18:00.834Z,0.42
2022-12-08T07:20:29.045Z,0.51
2022-12-08T07:22:56.996Z,0.61
2022-12-08T07:25:25.226Z,0.71
2022-12-08T07:27:53.595Z,0.82
2022-12-08T07:30:21.465Z,0.88
2022-12-08T07:32:49.329Z,0.92
2022-12-08T07:35:17.311Z,0.95
2022-12-08T07:37:45.172Z,0.98
2022-12-08T07:40:13.551Z,1.04
2022-12-08T07:42:41.520Z,1.08
2022-12-08T07:45:09.734Z,1.09
2022-12-08T07:47:37.659Z,1.13
2022-12-08T07:50:06.139Z,1.18
2022-12-08T07:52:35.344Z,1.24
2022-12-08T07:55:03.371Z,1.31
2022-12-08T07:57:31.174Z,1.37
2022-12-08T07:59:59.040Z,1.42
2022-12-08T08:02:27.111Z,1.48
2022-12-08T08:04:55.339Z,1.52
2022-12-08T08:07:23.374Z,1.57
2022-12-08T08:09:51.142Z,1.65
2022-12-08T08:12:34.209Z,1.74
2022-12-08T08:15:07.647Z,1.84
2022-12-08T08:17:36.985Z,1.90
2022-12-08T08:20:09.503Z,1.96
2022-12-08T08:22:37.498Z,2.02
2022-12-08T08:25:05.874Z,2.06
2022-12-08T08:27:33.739Z,2.09
2022-12-08T08:30:02.183Z,2.12
2022-12-08T08:32:33.469Z,2.14
2022-12-08T08:35:02.056Z,2.15
2022-12-08T08:37:30.023Z,2.18
2022-12-08T08:39:58.195Z,2.24
2022-12-08T08:42:25.978Z,2.34
2022-12-08T08:44:53.781Z,2.43
2022-12-08T08:47:21.707Z,2.54
2022-12-08T08:49:49.564Z,2.65
2022-12-08T08:52:17.328Z,2.79
2022-12-08T08:54:45.413Z,2.99
2022-12-08T08:57:13.264Z,3.19
2022-12-08T08:59:41.231Z,3.32
2022-12-08T09:02:15.782Z,3.55
2022-12-08T09:04:44.390Z,4.12
2022-12-08T09:07:12.618Z,5.00
2022-12-08T09:09:40.990Z,5.86
2022-12-08T09:12:09.167Z,6.59
2022-12-08T09:14:37.333Z,7.68
2022-12-08T09:17:05.830Z,8.61
2022-12-08T09:19:33.698Z,8.93
2022-12-08T09:22:01.653Z,8.82
2022-12-08T09:24:29.644Z,8.58
2022-12-08T09:26:57.501Z,8.49
2022-12-08T09:29:28.678Z,8.43
2022-12-08T09:31:59.580Z,8.40
2022-12-08T09:34:27.449Z,8.32
2022-12-08T09:36:55.320Z,8.17
2022-12-08T09:39:23.183Z,7.98
2022-12-08T09:41:56.376Z,7.86
2022-12-08T09:44:40.624Z,7.77
2022-12-08T09:47:19.775Z,7.68
2022-12-08T09:50:13.737Z,7.69
2022-12-08T09:52:45.264Z,7.69
2022-12-08T09:55:20.928Z,7.70
2022-12-08T09:57:56.334Z,7.89
2022-12-08T10:00:24.658Z,8.16
2022-12-08T10:02:52.834Z,8.39
2022-12-08T10:05:22.030Z,8.43
2022-12-08T10:07:59.365Z,8.49
2022-12-08T10:10:53.504Z,8.54
2022-12-08T10:13:27.364Z,8.57
2022-12-08T10:16:15.248Z,8.59
2022-12-08T10:18:47.319Z,8.61
2022-12-08T10:21:19.073Z,8.70
2022-12-08T10:23:51.655Z,8.86
2022-12-08T10:26:20.955Z,9.10
2022-12-08T10:28:48.920Z,9.70
2022-12-08T10:31:19.935Z,10.06
2022-12-08T10:33:49.672Z,10.20
2022-12-08T10:36:17.536Z,10.42
2022-12-08T10:38:45.506Z,10.53
2022-12-08T10:41:14.405Z,10.76
2022-12-08T10:43:49.845Z,11.14
2022-12-08T10:46:22.804Z,11.38
2022-12-08T10:48:54.998Z,11.66
2022-12-08T10:51:36.691Z,12.08
2022-12-08T10:54:06.293Z,12.36
2022-12-08T10:56:34.163Z,12.38
2022-12-08T10:59:06.590Z,12.99
2022-12-08T11:01:36.618Z,13.34
2022-12-08T11:04:07.233Z,13.08
2022-12-08T11:06:36.696Z,12.57
2022-12-08T11:09:24.223Z,11.89
2022-12-08T11:11:57.614Z,11.46
2022-12-08T11:14:25.589Z,11.25
2022-12-08T11:17:16.811Z,11.09
2022-12-08T11:19:46.305Z,11.13
2022-12-08T11:22:29.333Z,11.51
2022-12-08T11:24:59.208Z,12.31
2022-12-08T11:27:27.122Z,13.28
2022-12-08T11:29:55.416Z,14.31
2022-12-08T11:32:23.354Z,15.29
2022-12-08T11:34:54.299Z,16.20
2022-12-08T11:37:28.653Z,17.05
2022-12-08T11:40:03.636Z,17.85
2022-12-08T11:42:38.481Z,18.47
2022-12-08T11:45:10.541Z,18.89
2022-12-08T11:47:43.837Z,19.30
2022-12-08T11:50:25.941Z,19.10
2022-12-08T11:52:53.803Z,18.73
2022-12-08T11:55:43.940Z,18.42
2022-12-08T11:58:17.347Z,18.23
2022-12-08T12:00:45.770Z,18.43
2022-12-08T12:03:19.951Z,18.06
2022-12-08T12:06:18.303Z,17.18
2022-12-08T12:08:51.560Z,15.70
2022-12-08T12:11:39.395Z,14.87
2022-12-08T12:14:13.209Z,13.78
2022-12-08T12:16:50.423Z,13.21
2022-12-08T12:19:19.602Z,12.68
2022-12-08T12:21:54.090Z,12.13
2022-12-08T12:24:29.433Z,11.56
2022-12-08T12:27:02.751Z,10.91
2022-12-08T12:29:35.532Z,10.31
2022-12-08T12:32:07.491Z,9.93
2022-12-08T12:34:38.975Z,9.89
2022-12-08T12:37:12.252Z,10.22
2022-12-08T12:40:07.426Z,10.77
2022-12-08T12:42:38.800Z,11.24
2022-12-08T12:45:16.392Z,11.26
2022-12-08T12:47:51.031Z,11.40
2022-12-08T12:50:33.330Z,11.89
2022-12-08T12:53:01.393Z,12.58
2022-12-08T12:55:47.900Z,13.29
2022-12-08T12:58:20.376Z,14.10
2022-12-08T13:00:48.342Z,14.61
2022-12-08T13:03:17.360Z,15.19
2022-12-08T13:05:51.038Z,15.68
2022-12-08T13:08:24.614Z,16.29
2022-12-08T13:11:01.314Z,16.93
2022-12-08T13:13:29.598Z,17.57
2022-12-08T13:16:20.619Z,17.86
2022-12-08T13:18:56.200Z,17.80
2022-12-08T13:21:25.406Z,17.29
2022-12-08T13:24:14.572Z,16.80
2022-12-08T13:26:46.685Z,15.93
2022-12-08T13:29:15.265Z,15.12
2022-12-08T13:31:49.775Z,14.28
2022-12-08T13:34:33.727Z,13.64
2022-12-08T13:37:10.943Z,13.01
2022-12-08T13:39:38.996Z,12.55
2022-12-08T13:42:12.805Z,11.94
2022-12-08T13:45:19.757Z,11.38
2022-12-08T13:47:35.158Z,10.66
2022-12-08T13:53:42.000Z,9.82
2022-12-08T13:58:36.465Z,8.93
2022-12-08T14:01:17.495Z,8.80
2022-12-08T14:06:50.539Z,8.65
2022-12-08T14:09:29.596Z,8.51
2022-12-08T14:11:58.266Z,8.42
2022-12-08T14:17:23.295Z,8.16
2022-12-08T14:19:58.932Z,8.07
2022-12-08T14:22:33.375Z,8.00
2022-12-08T14:25:02.344Z,7.93
2022-12-08T14:27:33.794Z,7.87
2022-12-08T14:30:02.744Z,7.82
2022-12-08T14:32:39.770Z,7.76
2022-12-08T14:35:08.029Z,7.70
2022-12-08T14:37:37.899Z,7.64
2022-12-08T14:40:24.567Z,7.57
2022-12-08T14:43:07.690Z,7.47
2022-12-08T14:45:35.760Z,7.35
2022-12-08T14:48:23.500Z,7.26
2022-12-08T14:50:57.049Z,7.18
2022-12-08T14:53:25.614Z,7.08
2022-12-08T14:55:53.528Z,7.00
2022-12-08T14:58:24.991Z,6.91
2022-12-08T15:00:54.816Z,6.81
2022-12-08T15:03:23.914Z,6.73
2022-12-08T15:05:53.416Z,6.65
2022-12-08T15:08:21.727Z,6.59
2022-12-08T15:11:08.816Z,6.53
2022-12-08T15:13:43.785Z,6.45
2022-12-08T15:16:23.702Z,6.41
2022-12-08T15:19:02.211Z,6.34
2022-12-08T15:21:31.199Z,6.27
2022-12-08T15:23:59.297Z,6.20
2022-12-08T15:26:28.277Z,6.15
2022-12-08T15:28:56.131Z,6.10
2022-12-08T15:31:24.178Z,6.03
2022-12-08T15:33:52.281Z,5.98
2022-12-08T15:36:20.077Z,5.94
2022-12-08T15:38:47.885Z,5.91
2022-12-08T15:41:15.781Z,5.90
2022-12-08T15:43:43.644Z,5.87
2022-12-08T15:46:11.899Z,5.87
2022-12-08T15:48:40.092Z,5.86
2022-12-08T15:51:07.957Z,5.84
2022-12-08T15:53:35.935Z,5.82
2022-12-08T15:58:56.046Z,5.71
2022-12-08T16:01:24.940Z,5.67
2022-12-08T16:07:20.447Z,5.62
2022-12-08T16:09:32.783Z,5.61
2022-12-08T16:12:19.845Z,5.59
2022-12-08T16:17:36.619Z,5.54
2022-12-08T16:20:06.107Z,5.50
2022-12-08T16:25:23.077Z,5.40
2022-12-08T16:28:05.229Z,5.33
2022-12-08T16:30:36.675Z,5.24
2022-12-08T16:33:04.878Z,5.20
2022-12-08T16:35:33.224Z,5.14
2022-12-08T16:38:01.233Z,5.12
2022-12-08T16:40:29.816Z,5.08
2022-12-08T16:42:57.674Z,5.03
2022-12-08T16:45:27.174Z,4.99
2022-12-08T16:47:56.690Z,4.93
2022-12-08T16:50:29.363Z,4.89
2022-12-08T16:52:58.680Z,4.84
2022-12-08T16:55:26.852Z,4.82
2022-12-08T16:57:55.018Z,4.80
2022-12-08T17:00:24.384Z,4.79
2022-12-08T17:02:52.900Z,4.77
2022-12-08T17:05:22.401Z,4.76
2022-12-08T17:07:51.611Z,4.74
2022-12-08T17:10:23.671Z,4.74
2022-12-08T17:12:51.651Z,4.74
2022-12-08T17:15:21.264Z,4.72
2022-12-08T17:17:49.213Z,4.71
2022-12-08T17:20:24.761Z,4.69
2022-12-08T17:22:57.649Z,4.68
2022-12-08T17:25:26.365Z,4.66
2022-12-08T17:27:54.512Z,4.64
2022-12-08T17:30:22.582Z,4.63
2022-12-08T17:32:52.940Z,4.63
2022-12-08T17:35:20.975Z,4.62
2022-12-08T17:37:48.944Z,4.58
2022-12-08T17:40:16.772Z,4.55
2022-12-08T17:42:44.885Z,4.54
2022-12-08T17:45:12.850Z,4.53
2022-12-08T17:47:40.820Z,4.53
2022-12-08T17:50:09.080Z,4.52
2022-12-08T17:52:37.688Z,4.49
2022-12-08T17:55:06.068Z,4.49
2022-12-08T17:57:34.028Z,4.49
2022-12-08T18:00:01.999Z,4.49
2022-12-08T18:02:39.784Z,4.46
2022-12-08T18:05:08.181Z,4.44
2022-12-08T18:07:36.023Z,4.43
2022-12-08T18:10:04.411Z,4.41
2022-12-08T18:12:32.909Z,4.39
2022-12-08T18:15:00.738Z,4.39
2022-12-08T18:17:28.678Z,4.38
2022-12-08T18:19:56.610Z,4.37
2022-12-08T18:22:24.472Z,4.36
2022-12-08T18:24:52.646Z,4.33
2022-12-08T18:27:20.621Z,4.31
2022-12-08T18:29:48.486Z,4.31
2022-12-08T18:32:16.460Z,4.31
2022-12-08T18:34:44.748Z,4.31
2022-12-08T18:37:12.703Z,4.30
2022-12-08T18:39:41.206Z,4.31
2022-12-08T18:42:24.824Z,4.32
2022-12-08T18:44:56.335Z,4.33
2022-12-08T18:47:24.555Z,4.35
2022-12-08T18:49:52.548Z,4.38
2022-12-08T18:52:28.276Z,4.41
2022-12-08T18:55:07.816Z,4.43
2022-12-08T18:57:40.386Z,4.44
2022-12-08T19:00:09.861Z,4.45
2022-12-08T19:02:38.894Z,4.43
2022-12-08T19:05:07.596Z,4.40
2022-12-08T19:07:35.446Z,4.35
2022-12-08T19:10:04.508Z,4.33
2022-12-08T19:12:32.715Z,4.29
2022-12-08T19:15:00.699Z,4.23
2022-12-08T19:17:29.881Z,4.16
2022-12-08T19:19:57.857Z,4.18
2022-12-08T19:22:25.685Z,4.18
2022-12-08T19:24:53.687Z,4.15
2022-12-08T19:27:21.757Z,4.15
2022-12-08T19:29:49.686Z,4.16
2022-12-08T19:32:17.703Z,4.15
2022-12-08T19:34:45.675Z,4.20
2022-12-08T19:37:13.949Z,4.22
2022-12-08T19:40:00.309Z,4.21
2022-12-08T19:42:47.048Z,4.19
2022-12-08T19:45:16.673Z,4.19
2022-12-08T19:47:44.999Z,4.20
2022-12-08T19:50:32.064Z,4.23
2022-12-08T19:53:00.395Z,4.21
2022-12-08T19:55:28.420Z,4.25
2022-12-08T19:58:01.768Z,4.25
2022-12-08T20:00:31.055Z,4.31
2022-12-08T20:03:00.024Z,4.36
2022-12-08T20:05:28.787Z,4.40
2022-12-08T20:07:57.174Z,4.40
2022-12-08T20:10:28.265Z,4.35
2022-12-08T20:13:16.680Z,4.34
2022-12-08T20:15:45.320Z,4.38
2022-12-08T20:18:14.234Z,4.45
2022-12-08T20:20:42.716Z,4.52
2022-12-08T20:23:11.195Z,4.62
2022-12-08T20:25:40.095Z,4.71
2022-12-08T20:28:08.113Z,4.72
2022-12-08T20:30:38.580Z,4.71
2022-12-08T20:33:06.789Z,4.78
2022-12-08T20:35:34.730Z,4.89
2022-12-08T20:38:03.068Z,4.94
2022-12-08T20:40:31.006Z,4.98
2022-12-08T20:42:58.938Z,5.01
2022-12-08T20:45:27.027Z,5.02
2022-12-08T20:47:54.877Z,5.00
2022-12-08T20:50:22.864Z,4.97
2022-12-08T20:52:50.942Z,4.92
2022-12-08T20:55:19.099Z,4.86
2022-12-08T20:57:47.114Z,4.82
2022-12-08T21:00:15.335Z,4.78
2022-12-08T21:02:48.542Z,4.73
2022-12-08T21:05:18.167Z,4.68
2022-12-08T21:07:46.700Z,4.61
2022-12-08T21:10:14.718Z,4.56
2022-12-08T21:12:42.790Z,4.49
2022-12-08T21:15:12.469Z,4.45
2022-12-08T21:17:40.661Z,4.40
2022-12-08T21:20:09.350Z,4.37
2022-12-08T21:22:37.742Z,4.34
2022-12-08T21:25:07.619Z,4.33
2022-12-08T21:27:36.858Z,4.34
2022-12-08T21:30:05.962Z,4.32
2022-12-08T21:32:34.507Z,4.31
2022-12-08T21:35:03.007Z,4.30
2022-12-08T21:37:31.106Z,4.30
2022-12-08T21:39:59.045Z,4.28
2022-12-08T21:42:45.549Z,4.24
2022-12-08T21:45:15.484Z,4.23
2022-12-08T21:47:44.085Z,4.24
2022-12-08T21:50:12.405Z,4.24
2022-12-08T21:52:42.418Z,4.24
2022-12-08T21:55:12.538Z,4.25
2022-12-08T21:57:41.341Z,4.23
2022-12-08T22:00:11.809Z,4.23
2022-12-08T22:02:40.238Z,4.22
2022-12-08T22:05:08.888Z,4.21
2022-12-08T22:07:41.141Z,4.21
2022-12-08T22:10:10.652Z,4.21
2022-12-08T22:12:39.168Z,4.20
2022-12-08T22:15:08.029Z,4.20
2022-12-08T22:17:37.601Z,4.20
2022-12-08T22:20:07.292Z,4.21
2022-12-08T22:22:35.804Z,4.23
2022-12-08T22:25:04.484Z,4.23
2022-12-08T22:27:35.512Z,4.21
2022-12-08T22:30:04.504Z,4.21
2022-12-08T22:32:32.948Z,4.21
2022-12-08T22:35:01.077Z,4.22
2022-12-08T22:37:29.325Z,4.23
2022-12-08T22:39:57.166Z,4.23
2022-12-08T22:42:25.262Z,4.23
2022-12-08T22:44:53.109Z,4.22
2022-12-08T22:47:21.720Z,4.21
2022-12-08T22:49:49.508Z,4.20
2022-12-08T22:52:17.675Z,4.19
2022-12-08T22:54:45.661Z,4.19
2022-12-08T22:57:13.697Z,4.19
2022-12-08T22:59:41.671Z,4.19
2022-12-08T23:02:10.255Z,4.20
2022-12-08T23:04:38.857Z,4.20
2022-12-08T23:07:06.949Z,4.20
2022-12-08T23:09:35.046Z,4.19
2022-12-08T23:12:03.358Z,4.19
2022-12-08T23:14:31.365Z,4.21
2022-12-08T23:16:59.651Z,4.24
2022-12-08T23:19:27.673Z,4.27
2022-12-08T23:21:55.547Z,4.30
2022-12-08T23:24:23.601Z,4.33
2022-12-08T23:26:51.584Z,4.37
2022-12-08T23:29:19.649Z,4.43
2022-12-08T23:31:47.729Z,4.47
2022-12-08T23:34:15.572Z,4.53
2022-12-08T23:36:43.876Z,4.58
2022-12-08T23:39:12.260Z,4.64
2022-12-08T23:41:40.478Z,4.69
2022-12-08T23:44:09.258Z,4.77
2022-12-08T23:46:37.369Z,4.84
2022-12-08T23:49:05.846Z,4.89
2022-12-08T23:51:33.945Z,4.95
2022-12-08T23:54:01.781Z,5.02
2022-12-08T23:56:30.649Z,5.08
2022-12-08T23:59:00.316Z,5.11
